Time;durP1;ratioP1;P1;durP2;ratioP2;P2;SDS_P1;SDS_P2;PMS_P1;PMS_P2;Temp;Humidity;BMP_temperature;BMP_pressure;BME280_temperature;BME280_humidity;BME280_pressure;Samples;Min_cycle;Max_cycle;Signal;HPM_P1;HPM_P2
2022/03/14 00:00:19;;;;;;;4.25;2.03;;;20.00;48.90;;;;;;4934949;29;20054;-88
2022/03/14 00:02:47;;;;;;;3.85;1.95;;;20.60;48.70;;;;;;4935357;29;20423;-87
2022/03/14 00:05:18;;;;;;;3.63;1.60;;;19.40;48.50;;;;;;4935653;29;20135;-88
2022/03/14 00:07:49;;;;;;;2.83;1.50;;;17.40;47.30;;;;;;4935092;29;20138;-87
2022/03/14 00:10:24;;;;;;;3.07;1.53;;;20.30;48.60;;;;;;4935651;29;20050;-88
2022/03/14 00:12:55;;;;;;;4.10;1.80;;;19.00;47.70;;;;;;4935387;29;20058;-87
2022/03/14 00:15:42;;;;;;;3.75;1.60;;;19.50;48.90;;;;;;4935730;29;20043;-88
2022/03/14 00:18:08;;;;;;;3.90;1.80;;;19.70;49.30;;;;;;4935790;29;20117;-88
2022/03/14 00:20:36;;;;;;;3.17;1.35;;;18.80;48.00;;;;;;4934921;29;20488;-88
2022/03/14 00:23:11;;;;;;;3.28;1.25;;;19.20;48.70;;;;;;4952894;29;20067;-88
2022/03/14 00:25:37;;;;;;;3.58;1.45;;;19.70;48.40;;;;;;4935605;29;20141;-88
2022/03/14 00:28:08;;;;;;;4.03;1.85;;;17.30;47.30;;;;;;4934735;29;20674;-88
2022/03/14 00:30:40;;;;;;;3.05;1.63;;;20.20;49.00;;;;;;4935257;29;20072;-88
2022/03/14 00:33:11;;;;;;;3.50;1.55;;;18.10;47.50;;;;;;4935362;29;20045;-88
2022/03/14 00:35:43;;;;;;;3.28;1.40;;;19.80;48.70;;;;;;4934787;29;20051;-88
2022/03/14 00:38:12;;;;;;;2.97;1.38;;;16.90;47.90;;;;;;4935155;29;20047;-88
2022/03/14 00:40:44;;;;;;;1.95;1.15;;;19.10;48.20;;;;;;4935147;29;20134;-89
2022/03/14 00:43:15;;;;;;;3.05;1.30;;;18.40;48.30;;;;;;4934645;29;20083;-88
2022/03/14 00:48:09;;;;;;;3.75;1.67;;;19.10;47.90;;;;;;4950327;29;20051;-87
2022/03/14 00:50:35;;;;;;;2.72;1.20;;;19.10;47.90;;;;;;4935133;29;20055;-87
2022/03/14 00:53:09;;;;;;;4.18;1.48;;;19.10;47.90;;;;;;4936908;29;20570;-88
2022/03/14 00:55:57;;;;;;;2.80;1.40;;;19.50;48.20;;;;;;4937420;29;20483;-88
2022/03/14 00:58:23;;;;;;;2.88;1.50;;;19.00;48.30;;;;;;4938483;29;20499;-88
2022/03/14 01:00:58;;;;;;;3.13;1.60;;;17.60;47.20;;;;;;4938849;29;20134;-89
2022/03/14 01:03:35;;;;;;;2.80;1.35;;;16.80;47.40;;;;;;4937554;29;20063;-88
2022/03/14 01:06:00;;;;;;;3.00;1.40;;;19.90;48.60;;;;;;4938266;29;20051;-89
2022/03/14 01:08:26;;;;;;;2.95;1.60;;;18.80;47.90;;;;;;4938435;29;20053;-89
2022/03/14 01:10:51;;;;;;;2.17;1.15;;;19.40;48.20;;;;;;4937973;29;20134;-89
2022/03/14 01:13:26;;;;;;;3.10;1.38;;;19.00;48.20;;;;;;4923297;29;20039;-89
2022/03/14 01:16:04;;;;;;;2.78;1.50;;;19.40;48.40;;;;;;4938406;29;20055;-89
2022/03/14 01:18:33;;;;;;;3.53;1.45;;;19.10;48.70;;;;;;4937717;29;20399;-89
2022/03/14 01:21:01;;;;;;;3.15;1.42;;;20.60;49.10;;;;;;4938909;29;20086;-88
2022/03/14 01:23:27;;;;;;;2.83;1.17;;;19.90;48.70;;;;;;4938217;29;20043;-89
2022/03/14 01:26:09;;;;;;;3.72;1.55;;;20.10;48.70;;;;;;4938729;29;20141;-88
2022/03/14 01:28:41;;;;;;;3.88;1.45;;;20.70;49.10;;;;;;4955558;29;20155;-89
2022/03/14 01:31:53;;;;;;;2.00;1.10;;;20.10;48.70;;;;;;4937926;29;20058;-88
2022/03/14 01:34:21;;;;;;;3.50;1.33;;;19.00;48.00;;;;;;4931141;29;20051;-88
2022/03/14 01:36:47;;;;;;;2.35;1.20;;;17.60;47.50;;;;;;4938097;29;20054;-89
2022/03/14 01:39:57;;;;;;;2.45;1.30;;;20.60;49.00;;;;;;4937717;29;20399;-89
2022/03/14 01:42:41;;;;;;;;;;;19.10;48.00;;;;;;4905068;29;20051;-88
2022/03/14 01:45:16;;;;;;;1.73;1.13;;;18.70;47.80;;;;;;4955001;29;19929;-89
2022/03/14 01:48:00;;;;;;;2.53;1.25;;;19.00;48.50;;;;;;4937437;29;20063;-89
2022/03/14 01:50:33;;;;;;;2.30;1.05;;;20.30;48.80;;;;;;4938329;29;20075;-89
2022/03/14 01:53:02;;;;;;;3.13;1.30;;;19.40;48.20;;;;;;4937222;29;20057;-89
2022/03/14 01:55:30;;;;;;;3.42;1.38;;;20.10;49.20;;;;;;4955165;29;20039;-88
2022/03/14 01:57:56;;;;;;;3.20;1.40;;;19.40;48.60;;;;;;4921885;29;20070;-89
2022/03/14 02:00:25;;;;;;;2.63;1.30;;;17.70;47.80;;;;;;4936940;29;20491;-88
2022/03/14 02:03:11;;;;;;;3.08;1.42;;;20.40;49.40;;;;;;4937618;28;20157;-89
2022/03/14 02:05:37;;;;;;;3.00;1.30;;;17.70;47.40;;;;;;4936070;29;20055;-88
2022/03/14 02:08:09;;;;;;;3.38;1.42;;;19.90;48.80;;;;;;4937636;29;20043;-88
2022/03/14 02:10:44;;;;;;;2.65;1.27;;;19.50;48.70;;;;;;4954930;29;20047;-88
2022/03/14 02:13:09;;;;;;;2.80;1.30;;;20.20;48.80;;;;;;4937363;29;20047;-89
2022/03/14 02:15:41;;;;;;;3.03;1.30;;;17.00;47.50;;;;;;4937647;29;20039;-89
2022/03/14 02:18:16;;;;;;;2.70;1.27;;;20.20;49.10;;;;;;4937442;29;20051;-89
2022/03/14 02:20:41;;;;;;;2.75;1.35;;;19.80;48.80;;;;;;4937330;29;20051;-88
2022/03/14 02:23:10;;;;;;;2.28;1.30;;;19.00;48.30;;;;;;4938087;29;20047;-89
2022/03/14 02:25:49;;;;;;;2.67;1.40;;;19.90;49.10;;;;;;4954150;29;20047;-89
2022/03/14 02:28:15;;;;;;;3.10;1.25;;;20.00;48.50;;;;;;4936957;29;20055;-89
2022/03/14 02:30:44;;;;;;;2.20;1.17;;;20.10;48.60;;;;;;4937202;29;20078;-88
2022/03/14 02:33:11;;;;;;;2.53;1.10;;;19.50;48.80;;;;;;4954139;29;20085;-89
2022/03/14 02:35:39;;;;;;;3.65;1.38;;;19.90;48.70;;;;;;4954242;29;20486;-88
2022/03/14 02:38:09;;;;;;;2.55;1.20;;;20.30;48.70;;;;;;4949444;29;20047;-89
2022/03/14 02:40:39;;;;;;;2.40;1.20;;;20.30;48.70;;;;;;4936325;29;20070;-88
2022/03/14 02:43:24;;;;;;;2.15;1.10;;;20.60;48.90;;;;;;4936958;29;20062;-89
2022/03/14 02:46:00;;;;;;;2.80;1.13;;;18.20;48.00;;;;;;4953675;29;20055;-89
2022/03/14 02:49:12;;;;;;;3.08;1.38;;;19.00;48.10;;;;;;4933125;29;20142;-89
2022/03/14 02:51:42;;;;;;;2.67;1.30;;;17.90;47.80;;;;;;4933437;29;20075;-89
2022/03/14 02:54:11;;;;;;;4.03;1.38;;;20.30;49.20;;;;;;4933844;29;20044;-89
2022/03/14 02:56:37;;;;;;;2.50;1.13;;;19.00;48.30;;;;;;4933295;29;20043;-89
2022/03/14 02:59:11;;;;;;;3.10;1.27;;;19.40;48.50;;;;;;4933192;29;20048;-88
2022/03/14 03:01:55;;;;;;;2.65;1.00;;;17.50;47.60;;;;;;4933681;29;20396;-88
2022/03/14 03:04:39;;;;;;;2.83;1.13;;;17.00;47.20;;;;;;4933598;29;20056;-88
2022/03/14 03:07:21;;;;;;;2.17;1.20;;;18.90;48.00;;;;;;4933402;29;20055;-88
2022/03/14 03:10:03;;;;;;;2.85;1.15;;;18.90;48.20;;;;;;4933110;29;20079;-88
2022/03/14 03:12:31;;;;;;;;;;;17.90;47.70;;;;;;4933798;29;20114;-88
2022/03/14 03:15:07;;;;;;;2.17;1.10;;;20.20;48.70;;;;;;4932848;29;19933;-89
2022/03/14 03:17:36;;;;;;;2.35;1.23;;;18.90;48.20;;;;;;4934391;29;20048;-88
2022/03/14 03:20:06;;;;;;;2.60;1.30;;;17.60;47.80;;;;;;4933907;29;20419;-88
2022/03/14 03:22:38;;;;;;;2.92;0.98;;;18.90;48.20;;;;;;4933945;29;20053;-88
2022/03/14 03:25:07;;;;;;;2.63;1.33;;;18.90;48.00;;;;;;4934111;29;20058;-88
2022/03/14 03:27:33;;;;;;;1.52;0.90;;;20.10;48.90;;;;;;4934911;29;20079;-88
2022/03/14 03:30:02;;;;;;;2.05;0.95;;;19.70;48.60;;;;;;4932433;29;20113;-88
2022/03/14 03:32:36;;;;;;;2.85;1.45;;;18.90;48.20;;;;;;4933337;29;20555;-88
2022/03/14 03:35:05;;;;;;;2.05;1.10;;;20.30;48.80;;;;;;4932473;29;20150;-88
2022/03/14 03:37:31;;;;;;;2.97;1.23;;;18.90;48.40;;;;;;4932549;29;20065;-88
2022/03/14 03:40:00;;;;;;;2.17;1.10;;;20.50;49.10;;;;;;4932958;29;20505;-88
2022/03/14 03:42:25;;;;;;;2.25;1.10;;;19.20;48.70;;;;;;4932936;29;20039;-88
2022/03/14 03:45:13;;;;;;;2.22;1.00;;;19.70;49.30;;;;;;4933528;29;20507;-87
2022/03/14 03:47:40;;;;;;;2.00;1.00;;;18.40;47.90;;;;;;4945713;29;20062;-88
2022/03/14 03:50:06;;;;;;;1.67;1.10;;;16.80;46.90;;;;;;4935726;29;20086;-88
2022/03/14 03:52:32;;;;;;;1.90;1.00;;;18.90;48.10;;;;;;4934972;29;20042;-88
2022/03/14 03:55:01;;;;;;;1.85;0.90;;;18.90;48.10;;;;;;4935952;29;20051;-88
2022/03/14 03:57:34;;;;;;;2.03;1.00;;;19.90;48.70;;;;;;4935780;29;20135;-88
2022/03/14 04:00:09;;;;;;;3.33;1.33;;;20.30;49.60;;;;;;4934885;29;20106;-88
2022/03/14 04:02:46;;;;;;;2.00;0.90;;;18.90;48.30;;;;;;4919899;29;20055;-88
2022/03/14 04:05:22;;;;;;;2.08;1.02;;;19.70;48.70;;;;;;4935104;29;20073;-88
2022/03/14 04:07:58;;;;;;;2.92;1.10;;;18.50;48.70;;;;;;4936023;29;20051;-88
2022/03/14 04:10:43;;;;;;;2.45;1.20;;;19.80;48.80;;;;;;4935809;29;20057;-88
2022/03/14 04:13:26;;;;;;;2.60;1.20;;;19.00;48.50;;;;;;4952730;29;20056;-88
2022/03/14 04:16:08;;;;;;;2.33;1.20;;;18.80;48.00;;;;;;4935610;29;20051;-88
2022/03/14 04:18:40;;;;;;;2.33;1.15;;;18.80;48.00;;;;;;4935525;29;20055;-88
2022/03/14 04:21:09;;;;;;;2.70;1.10;;;17.00;47.70;;;;;;4952985;29;20047;-88
2022/03/14 04:23:40;;;;;;;2.95;1.00;;;20.10;49.60;;;;;;4935737;29;20142;-89
2022/03/14 04:26:23;;;;;;;2.40;1.10;;;18.80;48.00;;;;;;4952675;28;20050;-88
2022/03/14 04:28:49;;;;;;;1.98;1.00;;;19.00;48.10;;;;;;4939115;29;20138;-89
2022/03/14 04:31:27;;;;;;;2.10;1.00;;;19.60;48.90;;;;;;4939732;29;20393;-89
2022/03/14 04:33:53;;;;;;;1.85;0.80;;;18.70;48.20;;;;;;4955957;29;20054;-89
2022/03/14 04:36:19;;;;;;;2.05;0.80;;;17.70;47.70;;;;;;4939680;29;20039;-89
2022/03/14 04:38:44;;;;;;;1.83;1.08;;;19.30;48.40;;;;;;4939960;29;20118;-89
2022/03/14 04:41:12;;;;;;;2.30;1.00;;;17.30;47.50;;;;;;4939798;29;20050;-89
2022/03/14 04:43:37;;;;;;;1.80;1.00;;;19.60;48.60;;;;;;4939990;29;20083;-89
2022/03/14 04:46:03;;;;;;;2.40;1.10;;;20.00;48.90;;;;;;4939764;29;20486;-89
2022/03/14 04:48:29;;;;;;;1.75;0.85;;;18.80;48.40;;;;;;4939137;29;20057;-89
2022/03/14 04:50:56;;;;;;;2.10;0.93;;;19.80;48.80;;;;;;4939870;29;20055;-89
2022/03/14 04:53:37;;;;;;;1.65;0.90;;;19.90;48.80;;;;;;4940074;29;20087;-89
2022/03/14 04:56:03;;;;;;;1.48;0.90;;;17.70;48.30;;;;;;4957220;29;20046;-89
2022/03/14 04:58:28;;;;;;;1.98;0.98;;;18.80;48.20;;;;;;4939547;29;20142;-89
2022/03/14 05:01:03;;;;;;;2.35;0.90;;;17.30;47.50;;;;;;4956496;29;20047;-88
2022/03/14 05:03:35;;;;;;;1.60;0.80;;;16.50;47.70;;;;;;4938993;29;20063;-90
2022/03/14 05:06:01;;;;;;;;;;;17.80;47.80;;;;;;4940549;29;20055;-90
2022/03/14 05:08:26;;;;;;;2.58;1.00;;;19.90;49.80;;;;;;4939374;29;20006;-90
2022/03/14 05:10:52;;;;;;;1.42;0.77;;;17.50;47.60;;;;;;4938280;29;20492;-88
2022/03/14 05:13:17;;;;;;;2.35;1.00;;;18.70;48.10;;;;;;4956204;29;20114;-90
2022/03/14 05:15:43;;;;;;;1.50;0.77;;;17.70;47.60;;;;;;4955751;29;20126;-90
2022/03/14 05:18:09;;;;;;;1.63;0.80;;;18.80;48.10;;;;;;4939344;29;20039;-90
2022/03/14 05:20:37;;;;;;;1.55;0.85;;;18.00;47.70;;;;;;4939160;29;20066;-90
2022/03/14 05:23:03;;;;;;;2.63;1.00;;;18.70;48.20;;;;;;4955800;29;20098;-90
2022/03/14 05:25:38;;;;;;;1.95;1.00;;;18.70;48.10;;;;;;4939306;29;20055;-90
2022/03/14 05:28:07;;;;;;;2.28;1.00;;;18.70;48.10;;;;;;4939157;29;20125;-90
2022/03/14 05:30:32;;;;;;;2.30;0.82;;;18.00;47.90;;;;;;4955874;29;20043;-90
2022/03/14 05:33:07;;;;;;;1.88;0.90;;;19.40;48.80;;;;;;4939299;29;20047;-91
2022/03/14 05:35:38;;;;;;;2.53;1.00;;;17.00;47.60;;;;;;4939013;29;20063;-90
2022/03/14 05:38:04;;;;;;;2.20;0.98;;;18.70;48.30;;;;;;4938569;29;20066;-90
2022/03/14 05:40:35;;;;;;;2.30;1.13;;;20.10;49.50;;;;;;4938937;29;20055;-90
2022/03/14 05:43:20;;;;;;;1.93;0.90;;;19.70;49.10;;;;;;4956409;29;20043;-90
2022/03/14 05:45:46;;;;;;;1.80;0.85;;;20.20;48.90;;;;;;4938651;29;20043;-89
2022/03/14 05:48:12;;;;;;;2.00;0.88;;;19.80;48.70;;;;;;4938984;29;20074;-91
2022/03/14 05:50:37;;;;;;;1.80;0.73;;;18.70;48.10;;;;;;4938746;29;20145;-91
2022/03/14 05:53:03;;;;;;;1.95;1.00;;;18.70;48.10;;;;;;4939053;29;20051;-91
2022/03/14 05:55:31;;;;;;;1.55;0.90;;;18.70;48.10;;;;;;4938830;29;20050;-90
2022/03/14 05:57:57;;;;;;;2.13;0.90;;;18.70;48.10;;;;;;4938527;29;20047;-90
2022/03/14 06:00:24;;;;;;;1.92;0.88;;;18.70;48.10;;;;;;4956184;29;20051;-90
2022/03/14 06:02:52;;;;;;;1.73;0.90;;;18.70;48.80;;;;;;4939129;29;20070;-91
2022/03/14 06:05:18;;;;;;;1.90;0.73;;;18.70;48.10;;;;;;4938491;29;20043;-90
2022/03/14 06:07:44;;;;;;;1.90;1.00;;;18.70;48.10;;;;;;4938405;29;20090;-90
2022/03/14 06:10:09;;;;;;;2.15;0.80;;;18.70;48.20;;;;;;4938363;29;20066;-90
2022/03/14 06:12:35;;;;;;;1.77;0.80;;;18.70;48.10;;;;;;4937650;29;20138;-90
2022/03/14 06:15:02;;;;;;;1.67;0.80;;;18.70;48.20;;;;;;4922327;29;20059;-89
2022/03/14 06:17:27;;;;;;;1.88;0.80;;;18.70;48.10;;;;;;4955077;29;20051;-89
2022/03/14 06:19:53;;;;;;;1.77;0.93;;;18.70;48.10;;;;;;4936962;29;20139;-89
2022/03/14 06:22:19;;;;;;;1.67;0.73;;;18.70;48.10;;;;;;4937220;29;20079;-89
2022/03/14 06:24:46;;;;;;;1.55;0.90;;;18.70;48.10;;;;;;4937417;29;20054;-89
2022/03/14 06:27:15;;;;;;;1.60;0.60;;;18.70;48.20;;;;;;4936782;29;20408;-90
2022/03/14 06:29:41;;;;;;;1.98;0.98;;;18.70;48.10;;;;;;4937426;29;20499;-90
2022/03/14 06:32:07;;;;;;;1.55;0.93;;;18.70;48.20;;;;;;4931368;29;20081;-89
2022/03/14 06:34:33;;;;;;;2.25;0.90;;;18.70;48.10;;;;;;4949206;29;20094;-89
2022/03/14 06:36:58;;;;;;;1.60;0.80;;;18.70;48.10;;;;;;4954571;29;20054;-88
2022/03/14 06:39:27;;;;;;;1.50;0.90;;;18.70;48.10;;;;;;4936818;29;20596;-89
2022/03/14 06:42:01;;;;;;;1.33;0.68;;;18.60;48.10;;;;;;4953343;29;20067;-89
2022/03/14 06:44:39;;;;;;;1.92;0.90;;;18.80;48.20;;;;;;4937060;29;20085;-88
2022/03/14 06:47:32;;;;;;;2.13;0.80;;;18.60;48.50;;;;;;4933745;29;20214;-88
2022/03/14 06:49:57;;;;;;;2.00;0.80;;;18.60;48.30;;;;;;4924170;29;20044;-89
2022/03/14 06:52:23;;;;;;;1.95;0.90;;;18.60;48.10;;;;;;4929642;29;20047;-89
2022/03/14 06:54:51;;;;;;;1.50;0.77;;;18.60;48.10;;;;;;4953305;29;20114;-88
2022/03/14 06:57:17;;;;;;;1.58;0.82;;;18.60;48.10;;;;;;4954160;29;20046;-89
2022/03/14 06:59:42;;;;;;;1.20;0.68;;;18.60;48.10;;;;;;4954169;29;20039;-89
2022/03/14 07:02:11;;;;;;;2.45;1.00;;;18.60;48.10;;;;;;4935224;29;20047;-88
2022/03/14 07:04:37;;;;;;;1.42;0.68;;;18.60;48.20;;;;;;4934492;29;20050;-88
2022/03/14 07:07:03;;;;;;;1.48;0.75;;;18.60;48.10;;;;;;4928303;29;20539;-89
2022/03/14 07:09:35;;;;;;;1.30;0.70;;;18.60;48.10;;;;;;4953080;29;20043;-89
2022/03/14 07:12:00;;;;;;;1.93;0.90;;;18.60;48.10;;;;;;4954656;29;20130;-90
2022/03/14 07:14:26;;;;;;;1.85;0.85;;;18.60;48.10;;;;;;4937402;29;20473;-90
2022/03/14 07:16:51;;;;;;;1.52;0.80;;;18.60;48.10;;;;;;4936456;29;20059;-89
2022/03/14 07:19:17;;;;;;;1.52;0.70;;;18.60;48.10;;;;;;4953304;29;20787;-89
2022/03/14 07:21:43;;;;;;;1.30;0.70;;;19.20;48.50;;;;;;4936371;29;20051;-90
2022/03/14 07:24:08;;;;;;;1.95;0.95;;;18.60;48.10;;;;;;4936109;29;20047;-89
2022/03/14 07:26:37;;;;;;;1.10;0.60;;;18.60;48.20;;;;;;4953684;29;20035;-89
2022/03/14 07:29:03;;;;;;;1.35;0.80;;;18.60;48.20;;;;;;4952934;29;20463;-89
2022/03/14 07:31:28;;;;;;;1.40;0.70;;;18.60;48.20;;;;;;4936377;29;20051;-88
2022/03/14 07:33:54;;;;;;;1.45;0.82;;;18.60;48.20;;;;;;4929521;29;20067;-88
2022/03/14 07:36:22;;;;;;;1.13;0.60;;;18.60;48.20;;;;;;4946234;29;20058;-89
2022/03/14 07:38:48;;;;;;;1.23;0.60;;;19.80;48.80;;;;;;4951106;29;20039;-89
2022/03/14 07:41:13;;;;;;;1.65;0.70;;;18.60;48.20;;;;;;4952628;29;20206;-88
2022/03/14 07:43:42;;;;;;;1.40;0.82;;;19.00;48.40;;;;;;4935632;29;20607;-89
2022/03/14 07:46:07;;;;;;;1.65;0.80;;;18.60;48.20;;;;;;4953192;29;20047;-90
2022/03/14 07:48:34;;;;;;;1.27;0.70;;;18.60;48.20;;;;;;4936195;29;20055;-89
2022/03/14 07:51:00;;;;;;;1.20;0.60;;;18.60;48.20;;;;;;4937320;29;20067;-89
2022/03/14 07:53:25;;;;;;;1.40;0.73;;;19.40;48.60;;;;;;4937074;29;20471;-89
2022/03/14 07:55:52;;;;;;;1.10;0.57;;;18.60;48.20;;;;;;4954503;29;20047;-89
2022/03/14 07:58:20;;;;;;;1.88;0.73;;;18.60;48.20;;;;;;4936703;29;20054;-90
2022/03/14 08:00:46;;;;;;;1.27;0.70;;;18.60;48.20;;;;;;4935630;28;20143;-84
2022/03/14 08:03:16;;;;;;;1.38;0.68;;;18.60;48.20;;;;;;4955476;29;20039;-84
2022/03/14 08:05:44;;;;;;;1.73;0.70;;;18.50;48.30;;;;;;4936364;29;20070;-89
2022/03/14 08:08:09;;;;;;;1.98;0.80;;;18.60;48.20;;;;;;4939010;29;20075;-89
2022/03/14 08:10:39;;;;;;;1.40;0.60;;;18.60;48.20;;;;;;4938956;29;20487;-89
2022/03/14 08:13:05;;;;;;;1.45;0.70;;;18.80;48.40;;;;;;4927181;29;20149;-89
2022/03/14 08:15:31;;;;;;;1.80;0.73;;;18.60;48.20;;;;;;4957636;29;20130;-89
2022/03/14 08:18:01;;;;;;;1.40;0.80;;;18.60;48.30;;;;;;4957680;29;20074;-88
2022/03/14 08:20:27;;;;;;;2.03;0.70;;;18.60;48.20;;;;;;4956903;29;20055;-87
2022/03/14 08:22:53;;;;;;;2.70;0.95;;;18.60;48.20;;;;;;4935895;29;20119;-81
2022/03/14 08:25:22;;;;;;;3.60;1.30;;;18.50;48.30;;;;;;4948634;23;20530;-81
2022/03/14 08:27:48;;;;;;;4.70;1.20;;;18.60;48.40;;;;;;4938214;29;20062;-80
2022/03/14 08:30:14;;;;;;;4.25;1.05;;;18.60;48.60;;;;;;4918268;29;20416;-81
2022/03/14 08:32:42;;;;;;;3.80;0.95;;;18.60;48.60;;;;;;4914958;29;20071;-81
2022/03/14 08:35:11;;;;;;;3.00;0.90;;;19.70;49.20;;;;;;4899991;29;20492;-82
2022/03/14 08:37:41;;;;;;;6.78;1.13;;;18.60;48.60;;;;;;4926825;29;20051;-83
2022/03/14 08:40:08;;;;;;;3.92;1.00;;;19.80;49.40;;;;;;4921407;29;20059;-82
2022/03/14 08:42:34;;;;;;;2.35;0.85;;;18.60;48.80;;;;;;4916882;29;20036;-83
2022/03/14 08:45:02;;;;;;;1.67;0.70;;;18.60;48.70;;;;;;4908673;29;20647;-82
2022/03/14 08:47:28;;;;;;;4.78;1.17;;;19.30;49.10;;;;;;4901482;29;20067;-80
2022/03/14 08:50:21;;;;;;;4.72;1.10;;;18.70;49.40;;;;;;4928305;29;20051;-80
2022/03/14 08:52:49;;;;;;;3.65;1.35;;;18.60;49.00;;;;;;4914866;29;20421;-81
2022/03/14 08:55:15;;;;;;;2.50;1.00;;;18.70;49.10;;;;;;4929251;29;20048;-82
2022/03/14 08:57:43;;;;;;;4.35;1.30;;;18.70;49.10;;;;;;4936320;29;20044;-81
2022/03/14 09:00:11;;;;;;;2.90;1.42;;;18.70;49.00;;;;;;4918934;29;20047;-81
2022/03/14 09:02:40;;;;;;;5.00;1.38;;;18.70;49.10;;;;;;4938576;29;20054;-81
2022/03/14 09:13:00;;;;;;;3.55;1.30;;;18.70;49.30;;;;;;3131256;23;20342;-81
2022/03/14 09:15:33;;;;;;;3.70;1.05;;;18.70;49.40;;;;;;4951190;29;20503;-81
2022/03/14 09:18:03;;;;;;;3.65;1.40;;;18.70;49.40;;;;;;4936223;29;20134;-81
2022/03/14 09:20:32;;;;;;;2.55;1.15;;;18.70;49.40;;;;;;4953147;29;20051;-81
2022/03/14 09:22:57;;;;;;;2.75;1.20;;;18.70;49.50;;;;;;4933941;29;20043;-81
2022/03/14 09:25:26;;;;;;;2.67;1.30;;;18.60;49.50;;;;;;4937493;29;20055;-81
2022/03/14 09:27:52;;;;;;;4.22;1.45;;;18.60;49.50;;;;;;4951258;29;20095;-81
2022/03/14 09:30:20;;;;;;;3.13;1.15;;;18.60;49.60;;;;;;4951867;29;20491;-81
2022/03/14 09:32:45;;;;;;;3.53;1.73;;;18.70;49.60;;;;;;4931760;29;20047;-81
2022/03/14 09:35:11;;;;;;;3.53;1.27;;;18.60;49.50;;;;;;4953523;29;20455;-81
2022/03/14 09:38:03;;;;;;;2.83;1.40;;;19.80;50.20;;;;;;5040541;23;20059;-80
2022/03/14 09:40:40;;;;;;;4.25;1.40;;;18.70;49.80;;;;;;4911656;29;20141;-80
2022/03/14 09:43:06;;;;;;;2.20;1.20;;;18.50;49.80;;;;;;4922174;29;20531;-79
2022/03/14 09:45:37;;;;;;;3.00;1.33;;;18.40;50.30;;;;;;4918645;29;20075;-80
2022/03/14 09:48:03;;;;;;;2.45;1.20;;;18.60;49.60;;;;;;4902889;29;20073;-79
2022/03/14 09:50:38;;;;;;;2.30;1.08;;;18.60;49.50;;;;;;4927956;29;20057;-79
2022/03/14 09:53:07;;;;;;;3.22;1.13;;;18.60;49.40;;;;;;4949234;29;20070;-79
2022/03/14 09:55:40;;;;;;;4.75;1.38;;;18.60;49.40;;;;;;4934399;29;20043;-79
2022/03/14 09:58:08;;;;;;;3.45;1.17;;;18.60;49.50;;;;;;4951717;29;20039;-79
2022/03/14 10:00:37;;;;;;;2.90;1.48;;;18.60;49.60;;;;;;4920638;29;20051;-78
2022/03/14 10:03:05;;;;;;;2.58;1.20;;;18.60;49.60;;;;;;4953832;29;20039;-79
2022/03/14 10:05:30;;;;;;;3.13;1.33;;;18.60;49.60;;;;;;4953325;29;20114;-79
2022/03/14 10:07:56;;;;;;;3.20;1.30;;;18.60;49.70;;;;;;4936538;29;20495;-79
2022/03/14 10:10:22;;;;;;;4.88;1.52;;;18.50;49.60;;;;;;4951484;29;20047;-79
2022/03/14 10:12:53;;;;;;;11.55;1.13;;;18.60;49.70;;;;;;4922092;29;20404;-79
2022/03/14 10:15:20;;;;;;;3.40;1.13;;;18.70;49.80;;;;;;4887670;29;20051;-78
2022/03/14 10:17:48;;;;;;;7.72;1.08;;;18.60;49.60;;;;;;4924683;29;20538;-79
2022/03/14 10:20:17;;;;;;;5.60;1.38;;;18.60;49.90;;;;;;4921603;29;20050;-79
2022/03/14 10:22:44;;;;;;;3.72;1.13;;;18.60;49.90;;;;;;4935140;29;20035;-80
2022/03/14 10:25:14;;;;;;;3.03;1.23;;;18.70;50.00;;;;;;4951777;28;20062;-80
2022/03/14 10:27:43;;;;;;;4.13;1.40;;;18.70;50.10;;;;;;4953502;29;20055;-81
2022/03/14 10:30:23;;;;;;;4.53;1.30;;;18.60;50.10;;;;;;4936281;29;20554;-80
2022/03/14 10:32:49;;;;;;;4.82;1.40;;;18.60;49.90;;;;;;4935248;29;20157;-81
2022/03/14 10:35:20;;;;;;;5.05;1.65;;;18.60;49.90;;;;;;4927130;29;20519;-80
2022/03/14 10:38:02;;;;;;;3.03;1.40;;;19.50;50.30;;;;;;5065638;23;20417;-81
2022/03/14 10:40:35;;;;;;;2.80;1.33;;;18.60;49.80;;;;;;4935014;29;20055;-82
2022/03/14 10:43:01;;;;;;;4.10;1.55;;;18.60;49.80;;;;;;4953544;29;20673;-81
2022/03/14 10:45:31;;;;;;;5.38;1.52;;;18.60;49.80;;;;;;5006775;23;20051;-81
2022/03/14 10:47:57;;;;;;;3.67;1.42;;;18.60;49.80;;;;;;4943208;29;20410;-81
2022/03/14 10:50:33;;;;;;;3.92;1.30;;;18.90;49.90;;;;;;4934361;29;20063;-82
2022/03/14 10:53:10;;;;;;;3.55;1.23;;;18.60;49.80;;;;;;4916463;29;20047;-82
2022/03/14 10:55:45;;;;;;;4.13;1.17;;;18.60;49.80;;;;;;4917116;29;20047;-80
2022/03/14 10:58:23;;;;;;;3.58;1.33;;;18.60;49.80;;;;;;4939000;29;20396;-82
2022/03/14 11:01:07;;;;;;;3.92;1.13;;;18.60;49.70;;;;;;4932749;29;20583;-82
2022/03/14 11:03:39;;;;;;;5.80;1.65;;;18.50;49.70;;;;;;4931600;29;20059;-82
2022/03/14 11:06:09;;;;;;;5.63;1.60;;;18.60;49.80;;;;;;4917257;29;20055;-82
2022/03/14 11:08:36;;;;;;;5.18;1.30;;;18.80;49.90;;;;;;4914863;29;20044;-83
2022/03/14 11:11:13;;;;;;;3.50;1.30;;;18.50;49.70;;;;;;4933141;29;20083;-82
2022/03/14 11:13:48;;;;;;;4.05;1.10;;;18.50;49.70;;;;;;4916339;29;20052;-82
2022/03/14 11:16:26;;;;;;;4.32;1.30;;;18.60;49.70;;;;;;4915675;29;20059;-82
2022/03/14 11:18:52;;;;;;;5.35;1.23;;;18.60;49.70;;;;;;4939247;29;20063;-82
2022/03/14 11:23:48;;;;;;;4.60;1.23;;;18.50;49.70;;;;;;4931591;29;20769;-83
2022/03/14 11:26:17;;;;;;;4.90;1.30;;;18.50;50.40;;;;;;4916208;29;20047;-81
2022/03/14 11:28:44;;;;;;;3.85;1.13;;;18.50;49.70;;;;;;4906339;29;20103;-82
2022/03/14 11:31:09;;;;;;;4.45;1.00;;;18.50;49.70;;;;;;4916091;29;20066;-82
2022/03/14 11:33:35;;;;;;;4.18;1.10;;;18.50;49.70;;;;;;4911708;29;20055;-82
2022/03/14 11:36:05;;;;;;;4.80;1.20;;;19.30;50.20;;;;;;4912582;29;20408;-83
2022/03/14 11:38:36;;;;;;;2.75;1.10;;;18.50;49.70;;;;;;4914698;29;20055;-82
2022/03/14 11:41:02;;;;;;;4.28;1.30;;;18.50;49.70;;;;;;5015427;23;20083;-82
2022/03/14 11:43:28;;;;;;;3.47;1.10;;;19.20;50.00;;;;;;4913595;29;20071;-82
2022/03/14 11:45:54;;;;;;;3.03;0.98;;;18.50;49.70;;;;;;4913991;29;20051;-82
2022/03/14 11:48:19;;;;;;;5.07;0.90;;;18.50;49.70;;;;;;4912131;29;20444;-82
2022/03/14 11:50:55;;;;;;;4.10;1.25;;;18.50;49.70;;;;;;4910058;29;20036;-82
2022/03/14 11:53:31;;;;;;;4.35;1.30;;;18.50;49.70;;;;;;4907607;29;20052;-85
2022/03/14 11:56:04;;;;;;;4.80;1.17;;;18.50;49.70;;;;;;4911405;29;20107;-88
2022/03/14 11:58:53;;;;;;;8.80;1.38;;;18.50;49.90;;;;;;4923004;29;20473;-84
2022/03/14 12:01:28;;;;;;;5.03;1.02;;;18.20;49.70;;;;;;4902984;29;20064;-83
2022/03/14 12:04:51;;;;;;;4.80;1.20;;;18.50;50.40;;;;;;4905631;29;20139;-84
2022/03/14 12:11:29;;;;;;;5.25;1.00;;;18.90;50.50;;;;;;4909824;29;20039;-87
2022/03/14 12:14:13;;;;;;;6.38;1.50;;;18.60;50.40;;;;;;4849709;29;20100;-81
2022/03/14 12:22:06;;;;;;;4.03;1.08;;;18.50;50.60;;;;;;5221505;23;20055;-84
2022/03/14 12:24:47;;;;;;;3.25;0.88;;;18.60;50.70;;;;;;4933516;29;20058;-82
2022/03/14 12:27:20;;;;;;;2.90;0.93;;;17.80;49.90;;;;;;4947749;29;20085;-81
2022/03/14 12:29:50;;;;;;;6.25;1.10;;;18.60;50.10;;;;;;4934657;29;20153;-81
2022/03/14 12:32:39;;;;;;;5.35;1.00;;;18.60;50.30;;;;;;4934770;29;20055;-91
2022/03/14 12:35:27;;;;;;;3.17;1.00;;;18.60;50.30;;;;;;4945905;29;20079;-79
2022/03/14 12:38:16;;;;;;;4.60;1.10;;;18.40;50.30;;;;;;4951114;29;20047;-81
2022/03/14 12:40:43;;;;;;;4.13;1.15;;;18.70;50.30;;;;;;4950002;29;20079;-79
2022/03/14 12:43:28;;;;;;;3.88;1.27;;;18.70;50.20;;;;;;4951537;29;20407;-78
2022/03/14 12:45:58;;;;;;;6.63;1.05;;;18.70;50.20;;;;;;4948775;29;20065;-79
2022/03/14 12:48:36;;;;;;;3.15;1.20;;;18.70;50.40;;;;;;4909742;29;20063;-79
2022/03/14 12:51:06;;;;;;;4.35;1.50;;;18.80;50.30;;;;;;4954658;29;20439;-79
2022/03/14 12:53:34;;;;;;;4.85;1.40;;;18.70;50.20;;;;;;4950689;29;20055;-78
2022/03/14 12:56:24;;;;;;;3.38;1.30;;;18.70;50.20;;;;;;4944902;29;20500;-79
2022/03/14 12:59:12;;;;;;;3.33;1.48;;;18.80;50.10;;;;;;4933164;29;20043;-78
2022/03/14 13:01:40;;;;;;;4.07;1.42;;;18.80;50.30;;;;;;4951879;29;20588;-80
2022/03/14 13:04:18;;;;;;;4.03;1.10;;;18.80;50.30;;;;;;4932703;29;20097;-82
2022/03/14 13:06:48;;;;;;;3.75;1.48;;;20.40;50.90;;;;;;4919640;29;20051;-81
2022/03/14 13:09:31;;;;;;;4.65;1.30;;;18.80;50.10;;;;;;4935111;29;20064;-81
2022/03/14 13:12:06;;;;;;;5.68;1.50;;;18.90;49.90;;;;;;4935728;29;20055;-81
2022/03/14 13:14:38;;;;;;;4.50;1.45;;;18.90;50.20;;;;;;4918023;29;20055;-81
2022/03/14 13:27:26;;;;;;;7.05;3.28;;;17.80;49.60;;;;;;4929603;29;20579;-79
2022/03/14 13:51:37;;;;;;;7.03;3.50;;;19.00;49.90;;;;;;4833755;29;20054;-79
2022/03/14 13:54:09;;;;;;;11.15;4.18;;;19.40;50.10;;;;;;4838940;29;20057;-78
2022/03/14 13:56:47;;;;;;;9.02;3.63;;;19.00;49.90;;;;;;4876035;29;20231;-80
2022/03/14 14:03:05;;;;;;;9.27;5.13;;;19.60;50.00;;;;;;4914251;28;20495;-79
2022/03/14 14:19:27;;;;;;;;;;;;;;;;;;;;;